createdAt,value
2018-01-11T00:01:48.731Z,100963.17
2018-01-11T00:04:16.359Z,100961.02
2018-01-11T00:06:43.986Z,100964.52
2018-01-11T00:09:11.575Z,100963.72
2018-01-11T00:11:39.194Z,100956.48
2018-01-11T00:14:06.785Z,100964.23
2018-01-11T00:16:34.398Z,100960.13
2018-01-11T00:19:01.987Z,100952.04
2018-01-11T00:21:29.566Z,100956.77
2018-01-11T00:23:57.146Z,100956.66
2018-01-11T00:26:24.735Z,100956.59
2018-01-11T00:28:52.323Z,100959.10
2018-01-11T00:31:19.907Z,100955.97
2018-01-11T00:33:47.526Z,100956.33
2018-01-11T00:36:15.111Z,100958.35
2018-01-11T00:38:42.731Z,100955.77
2018-01-11T00:41:10.313Z,100952.72
2018-01-11T00:43:37.935Z,100953.03
2018-01-11T00:46:05.528Z,100954.00
2018-01-11T00:48:33.149Z,100949.53
2018-01-11T00:51:00.827Z,100946.17
2018-01-11T00:53:28.442Z,100952.80
2018-01-11T00:55:56.023Z,100943.23
2018-01-11T00:58:23.607Z,100946.20
2018-01-11T01:00:51.275Z,100951.02
2018-01-11T01:03:18.859Z,100953.06
2018-01-11T01:05:46.478Z,100950.48
2018-01-11T01:08:14.066Z,100950.95
2018-01-11T01:10:41.823Z,100948.02
2018-01-11T01:13:09.412Z,100958.64
2018-01-11T01:15:36.998Z,100951.48
2018-01-11T01:18:04.582Z,100960.31
2018-01-11T01:20:32.166Z,100955.58
2018-01-11T01:22:59.755Z,100956.20
2018-01-11T01:25:27.395Z,100955.94
2018-01-11T01:27:54.981Z,100962.70
2018-01-11T01:30:22.564Z,100961.59
2018-01-11T01:32:50.155Z,100962.00
2018-01-11T01:35:17.786Z,100970.05
2018-01-11T01:37:45.371Z,100969.84
2018-01-11T01:40:13.099Z,100974.29
2018-01-11T01:42:40.734Z,100974.75
2018-01-11T01:45:08.391Z,100971.71
2018-01-11T01:47:35.986Z,100975.17
2018-01-11T01:50:03.579Z,100969.57
2018-01-11T01:52:31.171Z,100973.25
2018-01-11T01:54:58.759Z,100968.73
2018-01-11T01:57:26.349Z,100968.13
2018-01-11T01:59:53.931Z,100968.45
2018-01-11T02:02:21.515Z,100979.00
2018-01-11T02:04:49.103Z,100978.28
2018-01-11T02:07:16.688Z,100983.62
2018-01-11T02:09:44.270Z,100977.08
2018-01-11T02:12:11.887Z,100981.38
2018-01-11T02:14:39.527Z,100983.45
2018-01-11T02:17:07.114Z,100983.44
2018-01-11T02:19:34.699Z,100988.17
2018-01-11T02:22:02.342Z,100986.61
2018-01-11T02:24:29.959Z,100991.33
2018-01-11T02:26:57.540Z,100984.47
2018-01-11T02:29:25.204Z,100989.11
2018-01-11T02:31:52.781Z,100996.02
2018-01-11T02:34:20.365Z,100989.22
2018-01-11T02:36:48.015Z,100995.25
2018-01-11T02:39:15.855Z,100993.53
2018-01-11T02:41:43.514Z,100988.38
2018-01-11T02:44:11.207Z,100992.29
2018-01-11T02:46:38.835Z,100988.42
2018-01-11T02:49:06.691Z,100989.38
2018-01-11T02:51:34.366Z,100985.92
2018-01-11T02:54:02.083Z,100988.84
2018-01-11T02:56:29.667Z,100982.27
2018-01-11T02:58:57.357Z,100985.59
2018-01-11T03:01:25.019Z,100986.03
2018-01-11T03:03:52.609Z,100994.38
2018-01-11T03:06:20.200Z,100994.38
2018-01-11T03:08:47.823Z,100996.69
2018-01-11T03:11:15.418Z,100995.82
2018-01-11T03:13:43.035Z,100995.31
2018-01-11T03:16:10.620Z,100993.42
2018-01-11T03:18:38.239Z,100996.17
2018-01-11T03:21:05.827Z,100993.52
2018-01-11T03:23:33.410Z,100991.62
2018-01-11T03:26:01.044Z,100986.56
2018-01-11T03:28:28.631Z,100990.27
2018-01-11T03:30:56.209Z,100989.41
2018-01-11T03:33:23.808Z,100988.68
2018-01-11T03:35:51.590Z,100991.64
2018-01-11T03:38:19.170Z,100988.38
2018-01-11T03:40:46.757Z,100991.36
2018-01-11T03:43:14.348Z,100998.09
2018-01-11T03:45:42.031Z,100993.34
2018-01-11T03:48:09.664Z,100994.01
2018-01-11T03:50:37.363Z,100993.52
2018-01-11T03:53:04.950Z,101001.16
2018-01-11T03:55:32.530Z,100994.37
2018-01-11T03:58:00.155Z,101004.62
2018-01-11T04:00:27.807Z,101009.70
2018-01-11T04:02:55.403Z,101012.55
2018-01-11T04:05:22.998Z,101010.03
2018-01-11T04:07:50.589Z,101009.52
2018-01-11T04:10:18.220Z,101013.30
2018-01-11T04:12:45.799Z,101008.16
2018-01-11T04:15:13.480Z,101005.34
2018-01-11T04:17:41.066Z,101010.14
2018-01-11T04:20:08.690Z,101015.33
2018-01-11T04:22:36.314Z,101007.04
2018-01-11T04:25:03.939Z,101012.23
2018-01-11T04:27:31.571Z,101018.06
2018-01-11T04:29:59.160Z,101017.88
2018-01-11T04:32:26.746Z,101010.83
2018-01-11T04:34:54.371Z,101010.70
2018-01-11T04:37:21.959Z,101010.00
2018-01-11T04:39:49.542Z,101016.45
2018-01-11T04:42:17.135Z,101015.76
2018-01-11T04:44:44.724Z,101022.45
2018-01-11T04:47:12.368Z,101024.86
2018-01-11T04:49:39.990Z,101022.14
2018-01-11T04:52:07.607Z,101025.30
2018-01-11T04:54:35.263Z,101021.95
2018-01-11T04:57:02.939Z,101023.50
2018-01-11T04:59:30.568Z,101021.84
2018-01-11T05:01:58.261Z,101019.19
2018-01-11T05:04:25.883Z,101017.80
2018-01-11T05:06:53.471Z,101018.95
2018-01-11T05:09:21.147Z,101021.62
2018-01-11T05:11:48.774Z,101014.00
2018-01-11T05:14:16.365Z,101018.70
2018-01-11T05:16:43.954Z,101007.72
2018-01-11T05:19:11.543Z,101009.03
2018-01-11T05:21:39.132Z,101004.03
2018-01-11T05:24:06.727Z,101013.36
2018-01-11T05:26:34.362Z,101007.47
2018-01-11T05:29:01.952Z,101015.69
2018-01-11T05:31:29.572Z,101014.55
2018-01-11T05:33:57.310Z,101021.20
2018-01-11T05:36:24.898Z,101014.29
2018-01-11T05:38:52.518Z,101013.52
2018-01-11T05:41:20.146Z,101015.92
2018-01-11T05:43:47.771Z,101011.20
2018-01-11T05:46:15.363Z,101007.94
2018-01-11T05:48:42.987Z,101013.28
2018-01-11T05:51:10.619Z,101010.83
2018-01-11T05:53:38.211Z,101017.32
2018-01-11T05:56:05.804Z,101020.20
2018-01-11T05:58:33.394Z,101020.58
2018-01-11T06:01:00.983Z,101018.31
2018-01-11T06:03:28.571Z,101023.48
2018-01-11T06:05:56.163Z,101028.90
2018-01-11T06:08:23.755Z,101034.31
2018-01-11T06:10:51.343Z,101032.79
2018-01-11T06:13:18.972Z,101034.19
2018-01-11T06:15:46.564Z,101031.53
2018-01-11T06:18:14.196Z,101030.07
2018-01-11T06:20:41.783Z,101029.59
2018-01-11T06:23:09.432Z,101040.99
2018-01-11T06:25:37.031Z,101040.03
2018-01-11T06:28:04.662Z,101046.42
2018-01-11T06:30:32.255Z,101041.52
2018-01-11T06:32:59.887Z,101049.02
2018-01-11T06:35:27.510Z,101050.30
2018-01-11T06:37:55.098Z,101058.06
2018-01-11T06:40:22.693Z,101058.20
2018-01-11T06:42:50.322Z,101064.09
2018-01-11T06:45:17.915Z,101063.28
2018-01-11T06:47:45.508Z,101066.15
2018-01-11T06:50:13.171Z,101064.01
2018-01-11T06:52:40.835Z,101066.20
2018-01-11T06:55:08.462Z,101064.08
2018-01-11T06:57:36.058Z,101061.73
2018-01-11T07:00:03.687Z,101059.09
2018-01-11T07:02:31.271Z,101058.73
2018-01-11T07:04:58.855Z,101055.69
2018-01-11T07:07:26.558Z,101068.61
2018-01-11T07:09:54.180Z,101060.36
2018-01-11T07:12:21.815Z,101068.95
2018-01-11T07:14:49.461Z,101070.13
2018-01-11T07:17:17.108Z,101066.48
2018-01-11T07:19:44.708Z,101069.32
2018-01-11T07:22:12.429Z,101069.39
2018-01-11T07:24:40.051Z,101067.17
2018-01-11T07:27:08.252Z,101070.72
2018-01-11T07:29:35.881Z,101072.49
2018-01-11T07:32:03.508Z,101076.20
2018-01-11T07:34:31.098Z,101074.33
2018-01-11T07:36:58.714Z,101084.75
2018-01-11T07:39:26.352Z,101085.17
2018-01-11T07:41:53.946Z,101087.84
2018-01-11T07:44:21.535Z,101091.40
2018-01-11T07:46:49.115Z,101098.02
2018-01-11T07:49:16.706Z,101098.67
2018-01-11T07:51:44.441Z,101099.62
2018-01-11T07:54:12.107Z,101102.31
2018-01-11T07:56:39.708Z,101106.11
2018-01-11T07:59:07.272Z,101092.50
2018-01-11T08:01:34.867Z,101099.06
2018-01-11T08:04:02.431Z,101099.57
2018-01-11T08:06:29.987Z,101101.19
2018-01-11T08:08:57.688Z,101099.73
2018-01-11T08:11:25.277Z,101108.80
2018-01-11T08:13:52.838Z,101109.05
2018-01-11T08:16:20.439Z,101115.41
2018-01-11T08:18:47.997Z,101117.05
2018-01-11T08:21:15.595Z,101122.94
2018-01-11T08:23:43.184Z,101122.39
2018-01-11T08:26:10.738Z,101127.16
2018-01-11T08:28:38.336Z,101124.56
2018-01-11T08:31:05.894Z,101126.52
2018-01-11T08:33:33.448Z,101141.80
2018-01-11T08:36:00.995Z,101145.05
2018-01-11T08:38:28.552Z,101141.61
2018-01-11T08:40:56.114Z,101151.11
2018-01-11T08:43:23.671Z,101152.58
2018-01-11T08:45:51.262Z,101157.28
2018-01-11T08:48:18.811Z,101168.25
2018-01-11T08:50:46.406Z,101167.67
2018-01-11T08:53:13.951Z,101166.84
2018-01-11T08:55:41.503Z,101171.42
2018-01-11T08:58:09.052Z,101171.08
2018-01-11T09:00:36.599Z,101172.47
2018-01-11T09:03:04.163Z,101179.87
2018-01-11T09:05:31.726Z,101179.36
2018-01-11T09:07:59.283Z,101181.46
2018-01-11T09:10:26.968Z,101182.76
2018-01-11T09:12:54.634Z,101176.55
2018-01-11T09:15:22.184Z,101177.95
2018-01-11T09:17:49.726Z,101183.82
2018-01-11T09:20:17.293Z,101192.76
2018-01-11T09:22:44.879Z,101187.62
2018-01-11T09:25:12.440Z,101192.76
2018-01-11T09:27:50.794Z,101197.00
2018-01-11T09:30:19.510Z,101187.02
2018-01-11T09:32:47.078Z,101190.65
2018-01-11T09:35:14.639Z,101199.96
2018-01-11T09:37:42.238Z,101201.67
2018-01-11T09:40:09.794Z,101206.94
2018-01-11T09:42:37.371Z,101206.39
2018-01-11T09:45:04.956Z,101198.99
2018-01-11T09:47:32.559Z,101202.05
2018-01-11T09:50:00.123Z,101204.62
2018-01-11T09:52:27.667Z,101214.92
2018-01-11T09:54:55.222Z,101221.55
2018-01-11T09:57:22.773Z,101221.81
2018-01-11T09:59:50.355Z,101216.67
2018-01-11T10:02:17.898Z,101217.63
2018-01-11T10:04:45.454Z,101215.88
2018-01-11T10:07:13.020Z,101219.52
2018-01-11T10:09:40.577Z,101221.84
2018-01-11T10:12:08.171Z,101223.95
2018-01-11T10:14:35.754Z,101222.36
2018-01-11T10:17:03.309Z,101231.10
2018-01-11T10:19:30.896Z,101228.23
2018-01-11T10:21:58.480Z,101232.70
2018-01-11T10:24:26.033Z,101229.41
2018-01-11T10:26:53.619Z,101229.90
2018-01-11T10:29:21.198Z,101227.28
2018-01-11T10:31:48.746Z,101229.84
2018-01-11T10:34:16.319Z,101230.66
2018-01-11T10:36:43.872Z,101226.91
2018-01-11T10:39:11.427Z,101229.60
2018-01-11T10:41:38.979Z,101228.83
2018-01-11T10:44:06.666Z,101232.33
2018-01-11T10:46:34.293Z,101232.58
2018-01-11T10:49:01.888Z,101233.16
2018-01-11T10:51:29.439Z,101232.55
2018-01-11T10:53:57.031Z,101238.33
2018-01-11T10:56:24.648Z,101231.68
2018-01-11T10:58:52.202Z,101237.33
2018-01-11T11:01:25.439Z,101241.77
2018-01-11T11:03:53.039Z,101238.48
2018-01-11T11:06:20.591Z,101244.16
2018-01-11T11:08:48.145Z,101239.80
2018-01-11T11:11:15.742Z,101244.52
2018-01-11T11:13:43.304Z,101235.58
2018-01-11T11:16:10.894Z,101231.76
2018-01-11T11:18:38.484Z,101229.59
2018-01-11T11:21:06.042Z,101224.72
2018-01-11T11:23:33.646Z,101229.83
2018-01-11T11:26:01.201Z,101231.07
2018-01-11T11:28:28.794Z,101227.75
2018-01-11T11:30:56.351Z,101231.34
2018-01-11T11:33:23.910Z,101235.31
2018-01-11T11:35:51.499Z,101229.52
2018-01-11T11:38:19.099Z,101233.11
2018-01-11T11:40:46.702Z,101231.34
2018-01-11T11:43:14.308Z,101230.41
2018-01-11T11:45:41.947Z,101231.28
2018-01-11T11:48:09.605Z,101233.43
2018-01-11T11:50:37.183Z,101231.80
2018-01-11T11:53:05.398Z,101234.30
2018-01-11T11:55:33.445Z,101235.00
2018-01-11T11:58:01.060Z,101236.69
2018-01-11T12:00:28.648Z,101231.45
2018-01-11T12:02:56.207Z,101238.02
2018-01-11T12:05:23.853Z,101230.27
2018-01-11T12:07:51.405Z,101231.10
2018-01-11T12:10:19.026Z,101233.38
2018-01-11T12:12:46.608Z,101233.01
2018-01-11T12:15:14.167Z,101237.98
2018-01-11T12:17:41.748Z,101237.63
2018-01-11T12:20:09.409Z,101241.42
2018-01-11T12:22:36.958Z,101242.41
2018-01-11T12:25:04.540Z,101241.84
2018-01-11T12:27:32.094Z,101247.70
2018-01-11T12:29:59.687Z,101249.21
2018-01-11T12:32:27.239Z,101247.42
2018-01-11T12:34:54.831Z,101262.97
2018-01-11T12:37:22.388Z,101260.33
2018-01-11T12:39:50.000Z,101264.93
2018-01-11T12:42:17.663Z,101272.56
2018-01-11T12:44:45.319Z,101269.02
2018-01-11T12:47:12.874Z,101266.27
2018-01-11T12:49:40.424Z,101267.56
2018-01-11T12:52:07.982Z,101267.42
2018-01-11T12:54:35.566Z,101271.42
2018-01-11T12:57:03.152Z,101262.81
2018-01-11T12:59:30.713Z,101265.42
2018-01-11T13:01:58.304Z,101256.48
2018-01-11T13:04:25.857Z,101256.36
2018-01-11T13:06:53.484Z,101256.61
2018-01-11T13:09:21.764Z,101257.88
2018-01-11T13:11:49.411Z,101266.17
2018-01-11T13:14:17.074Z,101260.87
2018-01-11T13:16:44.631Z,101259.38
2018-01-11T13:19:12.185Z,101259.38
2018-01-11T13:21:39.762Z,101265.49
2018-01-11T13:24:07.314Z,101264.64
2018-01-11T13:26:34.876Z,101271.41
2018-01-11T13:29:02.443Z,101279.23
2018-01-11T13:31:30.000Z,101281.09
2018-01-11T13:33:57.599Z,101282.58
2018-01-11T13:36:25.224Z,101285.70
2018-01-11T13:38:52.775Z,101290.66
2018-01-11T13:41:20.377Z,101291.98
2018-01-11T13:43:47.923Z,101289.70
2018-01-11T13:46:15.486Z,101299.02
2018-01-11T13:48:43.164Z,101299.05
2018-01-11T13:51:10.751Z,101305.91
2018-01-11T13:53:38.303Z,101308.59
2018-01-11T13:56:05.895Z,101317.00
2018-01-11T13:58:33.507Z,101312.74
2018-01-11T14:01:01.095Z,101322.15
2018-01-11T14:03:28.735Z,101327.42
2018-01-11T14:05:56.328Z,101327.44
2018-01-11T14:08:23.955Z,101326.42
2018-01-11T14:10:51.507Z,101326.67
2018-01-11T14:13:19.184Z,101330.02
2018-01-11T14:15:46.743Z,101324.73
2018-01-11T14:18:14.508Z,101334.65
2018-01-11T14:20:42.068Z,101333.78
2018-01-11T14:23:09.658Z,101345.10
2018-01-11T14:25:37.210Z,101348.25
2018-01-11T14:28:04.771Z,101360.41
2018-01-11T14:30:32.323Z,101353.34
2018-01-11T14:32:59.972Z,101354.12
2018-01-11T14:35:27.504Z,101362.43
2018-01-11T14:37:55.089Z,101369.51
2018-01-11T14:42:56.560Z,101376.32
2018-01-11T14:45:24.222Z,101383.99
2018-01-11T14:47:51.854Z,101388.17
2018-01-11T14:50:19.403Z,101388.64
2018-01-11T14:52:46.955Z,101393.27
2018-01-11T14:55:14.503Z,101394.78
2018-01-11T14:57:42.136Z,101394.25
2018-01-11T15:00:09.762Z,101396.68
2018-01-11T15:02:37.322Z,101394.69
2018-01-11T15:05:04.911Z,101396.67
2018-01-11T15:07:32.459Z,101396.02
2018-01-11T15:10:00.051Z,101398.67
2018-01-11T15:12:28.467Z,101401.71
2018-01-11T15:14:56.059Z,101406.91
2018-01-11T15:17:23.611Z,101407.94
2018-01-11T15:19:51.210Z,101405.33
2018-01-11T15:22:18.767Z,101416.58
2018-01-11T15:24:46.319Z,101409.13
2018-01-11T15:27:13.887Z,101418.30
2018-01-11T15:29:41.438Z,101423.98
2018-01-11T15:32:08.987Z,101434.63
2018-01-11T15:34:36.542Z,101431.64
2018-01-11T15:37:04.095Z,101435.71
2018-01-11T15:39:31.682Z,101447.37
2018-01-11T15:41:59.240Z,101446.13
2018-01-11T15:44:26.786Z,101448.85
2018-01-11T15:46:54.336Z,101454.13
2018-01-11T15:49:21.886Z,101456.35
2018-01-11T15:51:49.435Z,101457.06
2018-01-11T15:54:16.991Z,101460.13
2018-01-11T15:56:44.547Z,101463.78
2018-01-11T15:59:12.167Z,101468.61
2018-01-11T16:01:39.830Z,101469.55
2018-01-11T16:04:07.394Z,101475.08
2018-01-11T16:06:35.055Z,101474.88
2018-01-11T16:09:02.660Z,101480.58
2018-01-11T16:11:30.212Z,101480.64
2018-01-11T16:13:57.863Z,101482.28
2018-01-11T16:16:25.451Z,101483.47
2018-01-11T16:18:53.033Z,101485.09
2018-01-11T16:21:20.619Z,101491.26
2018-01-11T16:23:48.312Z,101488.61
2018-01-11T16:26:15.971Z,101489.31
2018-01-11T16:28:43.563Z,101485.86
2018-01-11T16:31:11.145Z,101486.48
2018-01-11T16:33:38.722Z,101492.14
2018-01-11T16:36:06.324Z,101494.03
2018-01-11T16:38:33.907Z,101486.34
2018-01-11T16:41:01.493Z,101494.03
2018-01-11T16:43:29.107Z,101496.00
2018-01-11T16:45:56.727Z,101493.91
2018-01-11T16:48:24.337Z,101493.27
2018-01-11T16:50:51.923Z,101490.95
2018-01-11T16:53:19.509Z,101487.73
2018-01-11T16:55:47.087Z,101497.77
2018-01-11T16:58:14.708Z,101499.78
2018-01-11T17:00:42.295Z,101506.34
2018-01-11T17:03:09.870Z,101504.69
2018-01-11T17:05:37.450Z,101509.30
2018-01-11T17:08:05.044Z,101508.39
2018-01-11T17:10:32.623Z,101510.67
2018-01-11T17:13:00.247Z,101510.67
2018-01-11T17:15:28.647Z,101510.35
2018-01-11T17:17:56.319Z,101519.83
2018-01-11T17:20:23.908Z,101520.33
2018-01-11T17:22:51.508Z,101525.13
2018-01-11T17:25:19.086Z,101529.50
2018-01-11T17:27:46.772Z,101521.14
2018-01-11T17:30:14.358Z,101528.27
2018-01-11T17:32:41.968Z,101525.00
2018-01-11T17:35:09.546Z,101528.13
2018-01-11T17:37:37.127Z,101533.66
2018-01-11T17:40:04.748Z,101544.80
2018-01-11T17:42:32.337Z,101547.34
2018-01-11T17:44:59.923Z,101549.22
2018-01-11T17:47:27.507Z,101549.50
2018-01-11T17:49:55.091Z,101549.78
2018-01-11T17:52:22.809Z,101554.52
2018-01-11T17:54:50.443Z,101560.22
2018-01-11T17:57:18.109Z,101557.02
2018-01-11T17:59:45.690Z,101565.01
2018-01-11T18:02:13.270Z,101572.13
2018-01-11T18:04:40.960Z,101569.53
2018-01-11T18:07:08.541Z,101576.30
2018-01-11T18:09:36.654Z,101571.33
2018-01-11T18:12:04.262Z,101571.78
2018-01-11T18:14:31.925Z,101567.84
2018-01-11T18:16:59.555Z,101569.70
2018-01-11T18:19:27.239Z,101570.78
2018-01-11T18:21:54.942Z,101571.20
2018-01-11T18:24:22.607Z,101577.53
2018-01-11T18:26:50.311Z,101576.52
2018-01-11T18:29:17.999Z,101581.36
2018-01-11T18:31:45.633Z,101579.85
2018-01-11T18:34:13.298Z,101570.00
2018-01-11T18:36:40.918Z,101575.66
2018-01-11T18:39:08.551Z,101581.77
2018-01-11T18:41:36.144Z,101575.06
2018-01-11T18:44:03.722Z,101593.48
2018-01-11T18:46:31.330Z,101593.41
2018-01-11T18:48:58.996Z,101598.44
2018-01-11T18:51:26.577Z,101598.44
2018-01-11T18:53:54.166Z,101603.55
2018-01-11T18:56:21.779Z,101608.50
2018-01-11T18:58:49.361Z,101613.95
2018-01-11T19:01:17.005Z,101617.49
2018-01-11T19:03:44.583Z,101621.50
2018-01-11T19:06:12.163Z,101627.61
2018-01-11T19:08:39.787Z,101623.81
2018-01-11T19:11:07.371Z,101619.75
2018-01-11T19:13:34.952Z,101630.18
2018-01-11T19:16:02.737Z,101632.25
2018-01-11T19:18:30.355Z,101632.88
2018-01-11T19:20:57.930Z,101637.09
2018-01-11T19:23:25.509Z,101633.16
2018-01-11T19:25:53.090Z,101637.16
2018-01-11T19:28:20.715Z,101643.86
2018-01-11T19:30:48.299Z,101643.07
2018-01-11T19:33:15.980Z,101650.37
2018-01-11T19:35:43.670Z,101651.57
2018-01-11T19:38:11.256Z,101652.44
2018-01-11T19:40:38.899Z,101665.09
2018-01-11T19:43:06.481Z,101665.20
2018-01-11T19:45:34.067Z,101667.11
2018-01-11T19:48:01.671Z,101673.92
2018-01-11T19:50:29.342Z,101672.20
2018-01-11T19:52:56.929Z,101675.13
2018-01-11T19:55:24.551Z,101668.91
2018-01-11T19:57:52.227Z,101672.93
2018-01-11T20:00:21.295Z,101674.73
2018-01-11T20:02:48.991Z,101679.77
2018-01-11T20:05:16.620Z,101687.01
2018-01-11T20:07:44.204Z,101691.77
2018-01-11T20:10:11.791Z,101696.78
2018-01-11T20:12:39.408Z,101697.36
2018-01-11T20:15:07.104Z,101700.70
2018-01-11T20:17:34.737Z,101707.62
2018-01-11T20:20:02.436Z,101701.59
2018-01-11T20:22:33.193Z,101714.97
2018-01-11T20:25:00.784Z,101715.72
2018-01-11T20:27:28.407Z,101717.02
2018-01-11T20:29:56.255Z,101719.02
2018-01-11T20:32:23.844Z,101714.94
2018-01-11T20:34:51.431Z,101721.67
2018-01-11T20:37:19.041Z,101723.92
2018-01-11T20:39:46.699Z,101722.55
2018-01-11T20:42:14.323Z,101722.02
2018-01-11T20:44:41.967Z,101722.76
2018-01-11T20:47:09.550Z,101717.38
2018-01-11T20:49:37.176Z,101723.67
2018-01-11T20:52:04.850Z,101728.97
2018-01-11T20:54:32.610Z,101728.02
2018-01-11T20:57:00.187Z,101729.04
2018-01-11T20:59:27.822Z,101734.59
2018-01-11T21:01:55.415Z,101730.14
2018-01-11T21:04:23.026Z,101736.11
2018-01-11T21:06:50.695Z,101734.28
2018-01-11T21:09:18.323Z,101738.83
2018-01-11T21:11:45.906Z,101737.36
2018-01-11T21:14:13.611Z,101743.80
2018-01-11T21:16:41.276Z,101743.84
2018-01-11T21:19:08.863Z,101758.47
2018-01-11T21:21:36.451Z,101751.03
2018-01-11T21:24:04.035Z,101756.59
2018-01-11T21:26:31.686Z,101757.80
2018-01-11T21:28:59.267Z,101761.92
2018-01-11T21:31:26.847Z,101771.11
2018-01-11T21:33:54.472Z,101767.99
2018-01-11T21:36:22.067Z,101777.39
2018-01-11T21:38:49.700Z,101778.87
2018-01-11T21:41:17.359Z,101784.23
2018-01-11T21:43:44.950Z,101788.00
2018-01-11T21:46:12.586Z,101789.83
2018-01-11T21:48:40.245Z,101793.82
2018-01-11T21:51:07.856Z,101804.97
2018-01-11T21:53:35.440Z,101808.25
2018-01-11T21:56:03.130Z,101806.67
2018-01-11T21:58:30.828Z,101809.54
2018-01-11T22:00:58.463Z,101810.15
2018-01-11T22:03:26.108Z,101817.93
2018-01-11T22:05:53.699Z,101817.55
2018-01-11T22:08:21.292Z,101824.13
2018-01-11T22:10:49.827Z,101827.70
2018-01-11T22:13:17.418Z,101826.00
2018-01-11T22:15:44.999Z,101830.80
2018-01-11T22:18:12.582Z,101829.18
2018-01-11T22:20:40.273Z,101829.49
2018-01-11T22:23:07.867Z,101829.73
2018-01-11T22:25:35.446Z,101828.48
2018-01-11T22:28:03.091Z,101823.00
2018-01-11T22:30:30.680Z,101828.20
2018-01-11T22:32:58.286Z,101827.64
2018-01-11T22:35:25.870Z,101826.36
2018-01-11T22:37:53.451Z,101822.78
2018-01-11T22:40:21.032Z,101819.53
2018-01-11T22:42:48.631Z,101834.19
2018-01-11T22:45:16.212Z,101833.97
2018-01-11T22:47:43.798Z,101835.70
2018-01-11T22:50:11.512Z,101832.88
2018-01-11T22:52:39.091Z,101843.30
2018-01-11T22:55:06.677Z,101844.16
2018-01-11T22:57:35.199Z,101852.78
2018-01-11T23:00:02.779Z,101858.46
2018-01-11T23:02:30.367Z,101862.95
2018-01-11T23:04:58.001Z,101862.77
2018-01-11T23:07:25.667Z,101867.13
2018-01-11T23:09:53.254Z,101874.96
2018-01-11T23:12:20.854Z,101872.55
2018-01-11T23:14:48.432Z,101877.05
2018-01-11T23:17:16.054Z,101877.50
2018-01-11T23:19:43.634Z,101877.55
2018-01-11T23:22:11.219Z,101876.69
2018-01-11T23:24:38.867Z,101873.29
2018-01-11T23:27:06.456Z,101877.30
2018-01-11T23:29:34.042Z,101869.73
2018-01-11T23:32:01.684Z,101875.45
2018-01-11T23:34:29.367Z,101876.87
2018-01-11T23:36:56.943Z,101883.03
2018-01-11T23:39:24.530Z,101883.84
2018-01-11T23:41:52.112Z,101883.64
2018-01-11T23:44:19.806Z,101884.70
2018-01-11T23:46:47.392Z,101882.97
2018-01-11T23:49:15.027Z,101877.59
2018-01-11T23:51:42.611Z,101885.62
2018-01-11T23:54:10.238Z,101881.54
2018-01-11T23:56:37.823Z,101889.20
2018-01-11T23:59:05.412Z,101889.08
